createdAt,value
2018-11-12T00:01:42.157Z,7.67
2018-11-12T00:04:10.723Z,7.57
2018-11-12T00:06:39.067Z,7.73
2018-11-12T00:09:07.972Z,7.03
2018-11-12T00:11:36.653Z,6.93
2018-11-12T00:14:05.430Z,5.83
2018-11-12T00:16:33.773Z,7.67
2018-11-12T00:19:02.328Z,6.57
2018-11-12T00:21:30.752Z,7.80
2018-11-12T00:23:59.209Z,8.43
2018-11-12T00:26:27.800Z,6.47
2018-11-12T00:28:56.195Z,7.90
2018-11-12T00:31:24.621Z,7.40
2018-11-12T00:33:53.138Z,7.13
2018-11-12T00:36:21.545Z,6.73
2018-11-12T00:38:49.893Z,8.20
2018-11-12T00:41:18.425Z,6.80
2018-11-12T00:43:48.149Z,8.87
2018-11-12T00:46:16.474Z,7.07
2018-11-12T00:48:49.747Z,8.17
2018-11-12T00:51:18.193Z,12.53
2018-11-12T00:53:46.569Z,9.53
2018-11-12T00:56:15.030Z,8.30
2018-11-12T00:58:44.151Z,8.63
2018-11-12T01:01:12.495Z,8.77
2018-11-12T01:03:41.058Z,8.33
2018-11-12T01:06:09.465Z,8.37
2018-11-12T01:08:37.847Z,8.80
2018-11-12T01:11:06.591Z,10.10
2018-11-12T01:13:34.931Z,8.33
2018-11-12T01:16:03.346Z,8.50
2018-11-12T01:18:31.834Z,9.03
2018-11-12T01:21:00.582Z,14.50
2018-11-12T01:23:28.941Z,10.63
2018-11-12T01:25:57.708Z,7.37
2018-11-12T01:28:26.103Z,11.67
2018-11-12T01:30:59.014Z,9.47
2018-11-12T01:33:27.469Z,10.63
2018-11-12T01:35:55.808Z,9.73
2018-11-12T01:38:24.557Z,7.83
2018-11-12T01:40:52.985Z,8.17
2018-11-12T01:43:21.367Z,7.83
2018-11-12T01:45:49.892Z,7.87
2018-11-12T01:48:18.415Z,8.57
2018-11-12T01:50:46.792Z,10.40
2018-11-12T01:53:15.474Z,10.07
2018-11-12T01:55:43.864Z,7.90
2018-11-12T01:58:12.211Z,13.13
2018-11-12T02:00:40.725Z,10.03
2018-11-12T02:03:09.077Z,12.67
2018-11-12T02:05:37.492Z,10.67
2018-11-12T02:08:06.014Z,9.50
2018-11-12T02:10:34.532Z,11.20
2018-11-12T02:13:02.902Z,10.03
2018-11-12T02:15:31.488Z,11.07
2018-11-12T02:17:59.839Z,9.47
2018-11-12T02:20:28.245Z,9.87
2018-11-12T02:22:56.763Z,10.23
2018-11-12T02:25:25.162Z,9.97
2018-11-12T02:27:53.523Z,11.23
2018-11-12T02:30:27.369Z,9.87
2018-11-12T02:32:55.693Z,11.13
2018-11-12T02:35:24.046Z,13.20
2018-11-12T02:37:52.465Z,11.23
2018-11-12T02:40:21.131Z,8.80
2018-11-12T02:42:49.496Z,13.33
2018-11-12T02:45:18.034Z,9.70
2018-11-12T02:47:46.477Z,9.57
2018-11-12T02:50:16.088Z,11.17
2018-11-12T02:52:44.564Z,10.93
2018-11-12T02:55:14.176Z,10.80
2018-11-12T02:57:43.345Z,10.67
2018-11-12T03:00:21.071Z,10.63
2018-11-12T03:02:49.485Z,11.97
2018-11-12T03:05:17.897Z,10.63
2018-11-12T03:07:46.544Z,8.60
2018-11-12T03:10:17.196Z,10.03
2018-11-12T03:12:45.531Z,9.87
2018-11-12T03:15:14.980Z,10.50
2018-11-12T03:17:43.997Z,10.13
2018-11-12T03:20:13.864Z,9.70
2018-11-12T03:22:42.557Z,9.30
2018-11-12T03:25:12.152Z,11.20
2018-11-12T03:27:41.162Z,10.37
2018-11-12T03:30:11.353Z,12.87
2018-11-12T03:32:39.666Z,7.50
2018-11-12T03:35:09.036Z,11.53
2018-11-12T03:37:37.850Z,10.87
2018-11-12T03:40:08.816Z,9.27
2018-11-12T03:42:37.162Z,10.43
2018-11-12T03:45:08.768Z,13.43
2018-11-12T03:47:37.226Z,12.13
2018-11-12T03:50:07.476Z,9.50
2018-11-12T03:52:36.101Z,11.83
2018-11-12T03:55:04.532Z,12.57
2018-11-12T03:57:32.884Z,10.03
2018-11-12T04:00:01.757Z,11.70
2018-11-12T04:02:30.121Z,9.40
2018-11-12T04:04:58.528Z,11.80
2018-11-12T04:07:27.180Z,9.40
2018-11-12T04:09:55.560Z,12.23
2018-11-12T04:12:23.913Z,11.57
2018-11-12T04:14:52.397Z,14.53
2018-11-12T04:17:20.764Z,13.47
2018-11-12T04:19:49.111Z,12.77
2018-11-12T04:22:17.761Z,13.60
2018-11-12T04:24:46.085Z,11.30
2018-11-12T04:27:14.407Z,12.53
2018-11-12T04:29:42.941Z,12.40
2018-11-12T04:32:11.329Z,12.83
2018-11-12T04:34:39.725Z,11.37
2018-11-12T04:37:08.417Z,10.57
2018-11-12T04:39:36.781Z,10.73
2018-11-12T04:42:05.447Z,11.60
2018-11-12T04:44:34.017Z,12.83
2018-11-12T04:47:02.465Z,12.83
2018-11-12T04:49:30.864Z,10.80
2018-11-12T04:51:59.425Z,10.07
2018-11-12T04:54:27.813Z,10.33
2018-11-12T04:56:56.182Z,10.80
2018-11-12T04:59:24.794Z,10.73
2018-11-12T05:01:53.145Z,11.37
2018-11-12T05:04:21.497Z,11.20
2018-11-12T05:06:50.061Z,11.03
2018-11-12T05:09:18.399Z,10.87
2018-11-12T05:11:46.744Z,9.57
2018-11-12T05:14:15.747Z,11.70
2018-11-12T05:16:44.207Z,11.17
2018-11-12T05:19:12.650Z,10.30
2018-11-12T05:21:41.402Z,11.40
2018-11-12T05:24:09.738Z,13.20
2018-11-12T05:26:38.113Z,11.57
2018-11-12T05:29:09.716Z,13.93
2018-11-12T05:31:38.278Z,11.03
2018-11-12T05:34:08.965Z,10.40
2018-11-12T05:36:37.726Z,10.17
2018-11-12T05:39:12.188Z,12.30
2018-11-12T05:41:40.698Z,11.13
2018-11-12T05:44:09.413Z,10.90
2018-11-12T05:46:37.778Z,13.10
2018-11-12T05:49:06.525Z,10.73
2018-11-12T05:51:34.936Z,10.43
2018-11-12T05:54:03.326Z,10.90
2018-11-12T05:56:32.320Z,10.00
2018-11-12T05:59:00.798Z,9.63
2018-11-12T06:01:29.156Z,10.53
2018-11-12T06:03:58.411Z,10.30
2018-11-12T06:06:28.002Z,10.43
2018-11-12T06:08:56.392Z,11.07
2018-11-12T06:11:25.026Z,11.03
2018-11-12T06:13:53.379Z,10.07
2018-11-12T06:16:21.837Z,11.17
2018-11-12T06:18:50.291Z,12.73
2018-11-12T06:21:18.657Z,10.93
2018-11-12T06:23:47.022Z,8.97
2018-11-12T06:26:16.229Z,11.60
2018-11-12T06:28:44.566Z,11.03
2018-11-12T06:31:12.960Z,9.67
2018-11-12T06:33:41.473Z,10.87
2018-11-12T06:36:09.835Z,9.90
2018-11-12T06:38:38.202Z,10.37
2018-11-12T06:41:06.821Z,9.77
2018-11-12T06:43:35.181Z,10.20
2018-11-12T06:46:03.593Z,10.73
2018-11-12T06:48:32.263Z,11.27
2018-11-12T06:51:00.663Z,11.30
2018-11-12T06:53:29.077Z,11.10
2018-11-12T06:55:57.618Z,13.83
2018-11-12T06:58:25.957Z,8.00
2018-11-12T07:00:54.374Z,11.73
2018-11-12T07:03:23.315Z,12.67
2018-11-12T07:05:51.639Z,10.67
2018-11-12T07:08:20.088Z,14.07
2018-11-12T07:10:48.846Z,12.10
2018-11-12T07:13:17.210Z,11.90
2018-11-12T07:15:45.534Z,13.27
2018-11-12T07:18:14.289Z,12.00
2018-11-12T07:20:43.111Z,14.17
2018-11-12T07:23:13.512Z,12.70
2018-11-12T07:25:43.246Z,14.80
2018-11-12T07:28:11.611Z,11.77
2018-11-12T07:30:40.024Z,14.37
2018-11-12T07:33:08.770Z,11.47
2018-11-12T07:35:37.152Z,11.33
2018-11-12T07:38:05.969Z,13.40
2018-11-12T07:40:34.914Z,13.20
2018-11-12T07:43:03.435Z,12.47
2018-11-12T07:45:31.800Z,14.43
2018-11-12T07:48:00.401Z,16.23
2018-11-12T07:50:29.992Z,12.87
2018-11-12T07:52:58.406Z,12.73
2018-11-12T07:55:27.993Z,10.57
2018-11-12T07:57:57.205Z,12.00
2018-11-12T08:00:29.173Z,13.10
2018-11-12T08:03:02.963Z,12.10
2018-11-12T08:05:31.476Z,10.83
2018-11-12T08:07:59.837Z,10.60
2018-11-12T08:10:28.188Z,10.53
2018-11-12T08:12:56.774Z,12.07
2018-11-12T08:15:25.119Z,10.63
2018-11-12T08:17:53.501Z,10.23
2018-11-12T08:20:23.061Z,12.57
2018-11-12T08:22:51.927Z,11.07
2018-11-12T08:25:20.273Z,10.70
2018-11-12T08:27:49.128Z,12.60
2018-11-12T08:30:19.917Z,10.57
2018-11-12T08:32:50.470Z,10.63
2018-11-12T08:35:18.838Z,9.27
2018-11-12T08:37:47.838Z,10.13
2018-11-12T08:40:17.840Z,9.07
2018-11-12T08:42:46.453Z,10.30
2018-11-12T08:45:15.138Z,10.17
2018-11-12T08:47:45.163Z,10.37
2018-11-12T08:50:15.350Z,9.83
2018-11-12T08:52:44.764Z,10.80
2018-11-12T08:55:22.026Z,8.57
2018-11-12T08:57:51.616Z,8.63
2018-11-12T09:00:21.697Z,6.47
2018-11-12T09:02:50.224Z,8.27
2018-11-12T09:05:19.753Z,10.03
2018-11-12T09:07:49.585Z,8.93
2018-11-12T09:10:20.438Z,8.57
2018-11-12T09:12:48.818Z,9.97
2018-11-12T09:15:17.244Z,9.80
2018-11-12T09:17:46.782Z,7.93
2018-11-12T09:20:16.824Z,8.00
2018-11-12T09:22:45.217Z,8.70
2018-11-12T09:25:16.036Z,7.23
2018-11-12T09:27:44.615Z,10.03
2018-11-12T09:30:14.704Z,9.83
2018-11-12T09:32:43.757Z,7.00
2018-11-12T09:35:16.166Z,10.73
2018-11-12T09:37:46.013Z,9.10
2018-11-12T09:40:23.704Z,11.67
2018-11-12T09:42:52.160Z,8.53
2018-11-12T09:45:20.500Z,8.73
2018-11-12T09:47:48.907Z,8.10
2018-11-12T09:50:19.604Z,9.43
2018-11-12T09:52:49.126Z,7.80
2018-11-12T09:55:18.357Z,10.40
2018-11-12T09:57:49.280Z,6.50
2018-11-12T10:00:18.843Z,7.63
2018-11-12T10:02:48.718Z,11.00
2018-11-12T10:05:18.192Z,8.37
2018-11-12T10:07:47.569Z,7.93
2018-11-12T10:10:56.156Z,8.70
2018-11-12T10:13:26.217Z,9.23
2018-11-12T10:15:55.050Z,8.73
2018-11-12T10:18:21.233Z,9.40
2018-11-12T10:20:49.598Z,8.77
2018-11-12T10:23:18.288Z,8.53
2018-11-12T10:25:46.955Z,6.77
2018-11-12T10:28:15.804Z,10.00
2018-11-12T10:30:44.157Z,6.80
2018-11-12T10:33:12.753Z,5.90
2018-11-12T10:35:41.173Z,5.00
2018-11-12T10:38:10.027Z,5.53
2018-11-12T10:40:38.501Z,5.43
2018-11-12T10:43:07.426Z,4.53
2018-11-12T10:45:35.771Z,4.77
2018-11-12T10:48:04.335Z,5.67
2018-11-12T10:50:32.632Z,3.40
2018-11-12T10:53:01.091Z,3.70
2018-11-12T10:55:29.831Z,6.53
2018-11-12T10:57:58.148Z,4.37
2018-11-12T11:00:35.507Z,4.00
2018-11-12T11:03:11.404Z,4.37
2018-11-12T11:05:41.171Z,4.40
2018-11-12T11:08:09.582Z,5.60
2018-11-12T11:10:37.933Z,6.43
2018-11-12T11:13:07.308Z,7.10
2018-11-12T11:15:36.376Z,6.47
2018-11-12T11:18:04.847Z,7.07
2018-11-12T11:20:38.075Z,6.73
2018-11-12T11:23:06.449Z,6.13
2018-11-12T11:25:35.087Z,6.70
2018-11-12T11:28:03.791Z,6.77
2018-11-12T11:30:32.297Z,6.53
2018-11-12T11:33:00.680Z,7.80
2018-11-12T11:35:29.262Z,6.33
2018-11-12T11:37:57.633Z,8.40
2018-11-12T11:40:26.943Z,7.13
2018-11-12T11:42:55.510Z,8.73
2018-11-12T11:45:23.928Z,10.57
2018-11-12T11:47:53.105Z,5.80
2018-11-12T11:50:24.726Z,5.93
2018-11-12T11:52:53.056Z,7.50
2018-11-12T11:55:22.513Z,7.33
2018-11-12T11:57:51.414Z,9.03
2018-11-12T12:00:22.980Z,9.90
2018-11-12T12:02:52.644Z,8.30
2018-11-12T12:05:21.867Z,5.90
2018-11-12T12:07:50.872Z,6.73
2018-11-12T12:10:19.456Z,5.57
2018-11-12T12:12:48.910Z,5.50
2018-11-12T12:15:18.572Z,6.00
2018-11-12T12:17:47.122Z,7.73
2018-11-12T12:20:17.699Z,4.83
2018-11-12T12:22:46.786Z,7.37
2018-11-12T12:25:16.427Z,5.00
2018-11-12T12:27:45.118Z,3.73
2018-11-12T12:30:18.073Z,3.17
2018-11-12T12:32:47.280Z,5.03
2018-11-12T12:35:15.814Z,6.23
2018-11-12T12:37:45.136Z,4.50
2018-11-12T12:40:14.857Z,6.30
2018-11-12T12:42:43.275Z,6.73
2018-11-12T12:45:14.088Z,5.63
2018-11-12T12:47:42.704Z,5.30
2018-11-12T12:50:12.362Z,8.17
2018-11-12T12:52:40.921Z,5.83
2018-11-12T12:55:10.465Z,6.83
2018-11-12T12:57:39.025Z,6.97
2018-11-12T13:00:18.834Z,5.07
2018-11-12T13:02:47.273Z,8.03
2018-11-12T13:05:15.683Z,5.77
2018-11-12T13:07:44.243Z,6.57
2018-11-12T13:10:14.101Z,5.93
2018-11-12T13:12:43.906Z,8.27
2018-11-12T13:15:13.752Z,5.97
2018-11-12T13:17:42.630Z,6.50
2018-11-12T13:20:12.370Z,4.60
2018-11-12T13:22:41.253Z,4.00
2018-11-12T13:25:10.218Z,3.20
2018-11-12T13:27:38.830Z,5.97
2018-11-12T13:30:10.075Z,4.83
2018-11-12T13:32:38.944Z,2.83
2018-11-12T13:35:09.083Z,3.10
2018-11-12T13:37:37.654Z,5.57
2018-11-12T13:40:10.036Z,4.17
2018-11-12T13:42:38.690Z,3.63
2018-11-12T13:45:07.759Z,4.20
2018-11-12T13:47:36.234Z,5.30
2018-11-12T13:50:06.923Z,5.83
2018-11-12T13:52:35.370Z,6.63
2018-11-12T13:55:03.979Z,15.87
2018-11-12T13:57:32.612Z,6.27
2018-11-12T14:00:00.999Z,8.17
2018-11-12T14:02:29.325Z,4.80
2018-11-12T14:04:57.853Z,3.00
2018-11-12T14:07:26.270Z,4.43
2018-11-12T14:09:54.781Z,3.77
2018-11-12T14:12:23.348Z,3.43
2018-11-12T14:14:51.719Z,3.77
2018-11-12T14:17:20.305Z,5.17
2018-11-12T14:19:48.991Z,4.07
2018-11-12T14:22:17.436Z,3.87
2018-11-12T14:24:46.121Z,4.80
2018-11-12T14:27:15.115Z,5.77
2018-11-12T14:29:43.563Z,5.83
2018-11-12T14:32:12.000Z,5.13
2018-11-12T14:34:40.808Z,4.90
2018-11-12T14:37:09.236Z,5.80
2018-11-12T14:39:37.745Z,5.80
2018-11-12T14:42:06.338Z,5.77
2018-11-12T14:44:34.810Z,5.37
2018-11-12T14:47:03.890Z,6.70
2018-11-12T14:49:32.501Z,4.40
2018-11-12T14:52:01.133Z,5.83
2018-11-12T14:54:29.848Z,5.43
2018-11-12T14:56:58.379Z,5.33
2018-11-12T14:59:26.823Z,4.90
2018-11-12T15:01:55.363Z,5.67
2018-11-12T15:04:23.851Z,6.40
2018-11-12T15:06:52.576Z,7.97
2018-11-12T15:09:21.282Z,6.03
2018-11-12T15:11:49.676Z,6.70
2018-11-12T15:14:18.248Z,5.93
2018-11-12T15:16:47.013Z,7.70
2018-11-12T15:19:15.502Z,6.30
2018-11-12T15:21:43.940Z,7.50
2018-11-12T15:24:12.994Z,7.23
2018-11-12T15:26:41.481Z,7.03
2018-11-12T15:29:10.115Z,6.77
2018-11-12T15:31:38.868Z,8.30
2018-11-12T15:34:07.336Z,11.27
2018-11-12T15:36:36.344Z,10.50
2018-11-12T15:39:07.804Z,8.83
2018-11-12T15:41:36.698Z,8.37
2018-11-12T15:44:05.710Z,10.23
2018-11-12T15:46:34.667Z,7.87
2018-11-12T15:49:03.714Z,8.00
2018-11-12T15:51:32.129Z,8.10
2018-11-12T15:54:00.862Z,9.87
2018-11-12T15:56:29.330Z,10.93
2018-11-12T15:58:57.702Z,14.87
2018-11-12T16:01:26.576Z,10.60
2018-11-12T16:03:55.106Z,8.73
2018-11-12T16:06:24.391Z,9.67
2018-11-12T16:08:53.222Z,8.00
2018-11-12T16:11:21.923Z,9.40
2018-11-12T16:13:50.243Z,6.70
2018-11-12T16:16:19.111Z,7.87
2018-11-12T16:18:47.535Z,9.97
2018-11-12T16:21:15.977Z,9.20
2018-11-12T16:23:44.742Z,6.80
2018-11-12T16:26:13.110Z,8.70
2018-11-12T16:28:41.601Z,13.37
2018-11-12T16:31:11.377Z,8.90
2018-11-12T16:33:39.769Z,9.20
2018-11-12T16:36:08.177Z,12.03
2018-11-12T16:38:36.835Z,8.90
2018-11-12T16:41:05.337Z,8.90
2018-11-12T16:43:33.743Z,7.90
2018-11-12T16:46:02.680Z,8.67
2018-11-12T16:48:31.013Z,7.87
2018-11-12T16:50:59.707Z,9.00
2018-11-12T16:53:28.317Z,8.90
2018-11-12T16:55:56.665Z,9.17
2018-11-12T16:58:25.091Z,10.50
2018-11-12T17:00:53.773Z,11.90
2018-11-12T17:03:22.273Z,9.60
2018-11-12T17:05:50.629Z,9.50
2018-11-12T17:08:19.113Z,7.93
2018-11-12T17:10:47.483Z,10.23
2018-11-12T17:13:15.885Z,8.50
2018-11-12T17:15:44.571Z,9.13
2018-11-12T17:18:13.116Z,10.73
2018-11-12T17:20:41.646Z,7.17
2018-11-12T17:23:10.757Z,10.57
2018-11-12T17:25:39.198Z,7.60
2018-11-12T17:28:07.938Z,9.97
2018-11-12T17:30:37.031Z,10.27
2018-11-12T17:33:05.445Z,11.63
2018-11-12T17:35:33.960Z,11.83
2018-11-12T17:38:02.866Z,10.07
2018-11-12T17:40:32.181Z,9.70
2018-11-12T17:43:00.894Z,15.40
2018-11-12T17:45:29.868Z,9.73
2018-11-12T17:47:58.769Z,10.37
2018-11-12T17:50:27.216Z,10.17
2018-11-12T17:52:56.363Z,11.23
2018-11-12T17:55:24.676Z,11.67
2018-11-12T17:57:53.030Z,8.57
2018-11-12T18:00:26.336Z,10.37
2018-11-12T18:02:54.939Z,12.27
2018-11-12T18:05:23.326Z,11.43
2018-11-12T18:07:52.833Z,11.77
2018-11-12T18:10:21.412Z,12.57
2018-11-12T18:12:49.778Z,9.27
2018-11-12T18:15:19.729Z,11.80
2018-11-12T18:17:48.171Z,11.43
2018-11-12T18:20:18.283Z,9.57
2018-11-12T18:22:46.884Z,10.67
2018-11-12T18:25:16.543Z,8.97
2018-11-12T18:27:45.170Z,9.73
2018-11-12T18:30:29.458Z,10.27
2018-11-12T18:32:58.342Z,9.33
2018-11-12T18:35:26.680Z,11.33
2018-11-12T18:37:55.321Z,12.10
2018-11-12T18:40:25.642Z,9.30
2018-11-12T18:42:54.187Z,11.17
2018-11-12T18:45:24.369Z,7.90
2018-11-12T18:47:53.005Z,9.77
2018-11-12T18:50:22.754Z,9.67
2018-11-12T18:52:51.366Z,10.57
2018-11-12T18:55:19.813Z,11.47
2018-11-12T18:57:48.772Z,10.23
2018-11-12T19:00:22.944Z,12.77
2018-11-12T19:02:52.075Z,10.70
2018-11-12T19:05:22.910Z,10.77
2018-11-12T19:07:52.492Z,11.87
2018-11-12T19:10:24.214Z,8.63
2018-11-12T19:12:53.392Z,12.50
2018-11-12T19:15:24.188Z,9.57
2018-11-12T19:17:55.341Z,9.33
2018-11-12T19:20:31.638Z,9.53
2018-11-12T19:23:00.705Z,9.37
2018-11-12T19:25:29.206Z,9.97
2018-11-12T19:27:57.688Z,11.87
2018-11-12T19:30:27.722Z,9.20
2018-11-12T19:32:56.141Z,8.93
2018-11-12T19:35:26.017Z,8.70
2018-11-12T19:37:54.874Z,7.60
2018-11-12T19:40:24.863Z,8.13
2018-11-12T19:42:54.102Z,8.23
2018-11-12T19:45:22.790Z,9.37
2018-11-12T19:47:51.676Z,9.97
2018-11-12T19:50:21.642Z,7.93
2018-11-12T19:52:51.381Z,10.13
2018-11-12T19:55:19.756Z,8.67
2018-11-12T19:57:48.481Z,9.63
2018-11-12T20:00:20.699Z,7.30
2018-11-12T20:02:50.175Z,8.90
2018-11-12T20:05:18.513Z,11.27
2018-11-12T20:07:48.327Z,8.83
2018-11-12T20:10:18.104Z,7.93
2018-11-12T20:12:46.758Z,8.33
2018-11-12T20:15:16.758Z,7.97
2018-11-12T20:17:46.049Z,8.00
2018-11-12T20:20:26.062Z,7.73
2018-11-12T20:22:54.509Z,7.93
2018-11-12T20:25:22.966Z,8.93
2018-11-12T20:27:52.539Z,8.87
2018-11-12T20:30:24.748Z,6.80
2018-11-12T20:32:53.393Z,17.43
2018-11-12T20:35:21.886Z,9.73
2018-11-12T20:37:50.712Z,7.43
2018-11-12T20:40:19.454Z,9.70
2018-11-12T20:42:48.730Z,7.70
2018-11-12T20:45:19.063Z,7.87
2018-11-12T20:47:49.279Z,7.83
2018-11-12T20:50:18.067Z,8.60
2018-11-12T20:52:46.559Z,11.10
2018-11-12T20:55:16.347Z,12.07
2018-11-12T20:57:45.370Z,7.97
2018-11-12T21:00:28.664Z,10.27
2018-11-12T21:02:57.363Z,10.30
2018-11-12T21:05:30.123Z,11.03
2018-11-12T21:07:59.194Z,9.60
2018-11-12T21:10:28.066Z,9.33
2018-11-12T21:12:57.010Z,9.73
2018-11-12T21:15:26.498Z,9.93
2018-11-12T21:17:55.115Z,10.80
2018-11-12T21:20:24.755Z,10.97
2018-11-12T21:22:53.564Z,9.83
2018-11-12T21:25:23.004Z,9.57
2018-11-12T21:27:51.787Z,9.57
2018-11-12T21:30:25.214Z,10.30
2018-11-12T21:32:53.705Z,10.23
2018-11-12T21:35:22.090Z,8.23
2018-11-12T21:37:51.362Z,8.87
2018-11-12T21:40:21.415Z,9.63
2018-11-12T21:42:49.949Z,9.97
2018-11-12T21:45:20.028Z,7.50
2018-11-12T21:47:48.744Z,9.07
2018-11-12T21:50:18.346Z,8.17
2018-11-12T21:52:46.981Z,6.40
2018-11-12T21:55:15.512Z,8.47
2018-11-12T21:57:44.818Z,7.53
2018-11-12T22:00:31.039Z,9.97
2018-11-12T22:03:01.677Z,7.07
2018-11-12T22:05:31.030Z,9.50
2018-11-12T22:07:59.649Z,7.53
2018-11-12T22:10:28.227Z,7.77
2018-11-12T22:12:56.731Z,7.57
2018-11-12T22:15:25.589Z,5.73
2018-11-12T22:17:54.179Z,9.27
2018-11-12T22:20:24.143Z,5.73
2018-11-12T22:22:52.973Z,5.07
2018-11-12T22:25:22.138Z,7.60
2018-11-12T22:27:51.274Z,7.87
2018-11-12T22:30:20.996Z,6.77
2018-11-12T22:32:50.735Z,6.10
2018-11-12T22:35:19.943Z,8.40
2018-11-12T22:37:48.725Z,8.90
2018-11-12T22:40:17.745Z,6.17
2018-11-12T22:42:47.035Z,9.80
2018-11-12T22:45:16.818Z,8.80
2018-11-12T22:47:45.931Z,6.90
2018-11-12T22:50:14.412Z,4.97
2018-11-12T22:52:43.723Z,6.50
2018-11-12T22:55:14.433Z,8.93
2018-11-12T22:57:42.905Z,5.43
2018-11-12T23:00:24.880Z,6.73
2018-11-12T23:02:54.691Z,8.60
2018-11-12T23:05:23.505Z,8.27
2018-11-12T23:07:52.590Z,6.67
2018-11-12T23:10:21.269Z,7.37
2018-11-12T23:12:49.681Z,8.47
2018-11-12T23:15:18.902Z,4.70
2018-11-12T23:17:47.372Z,7.03
2018-11-12T23:20:17.822Z,6.03
2018-11-12T23:22:47.639Z,7.10
2018-11-12T23:25:16.069Z,6.63
2018-11-12T23:27:45.241Z,5.73
2018-11-12T23:30:15.176Z,7.03
2018-11-12T23:32:43.856Z,7.97
2018-11-12T23:35:13.678Z,7.67
2018-11-12T23:37:43.030Z,13.10
2018-11-12T23:40:11.996Z,10.20
2018-11-12T23:42:40.512Z,8.70
2018-11-12T23:45:09.045Z,7.37
2018-11-12T23:47:37.864Z,6.30
2018-11-12T23:50:09.426Z,9.20
2018-11-12T23:52:38.272Z,8.60
2018-11-12T23:55:06.931Z,7.37
2018-11-12T23:57:35.478Z,9.23
